Tiempo atmosférico en la estación meteorológica de Antequera, Málaga (400 m.)



Fecha
DESCASC
Temp. máxima en grados centígrados (hora)
DESCASC
Temp. mínima en grados centígrados (hora)
DESCASC
Temp. media en grados centígrados
DESCASC
Racha de viento máxima en m/sg (hora)
DESCASC
Velocidad máxima media en intervalos de 10 minutos(hora)
DESCASC
Precipitaciones diarias en mm
DESCASC
Precipitaciones de 00:00 a 06:00 en mm
DESCASC
Precipitaciones de 06:00 a 12:00 en mm
DESCASC
Precipitaciones de 12:00 a 18:00 en mm
DESCASC
Precipitaciones de 18:00 a 24:00 en mm
DESCASC
20-09-2020 26 (16:00) 12.3 (08:40) 19.2 7.5 (16:40) 3.61 (17:40) 0.1 0 0.1 0 0
19-09-2020 23.9 (12:40) 13.7 (08:20) 18.8 8.33 (15:00) 3.61 (15:30) 0.1 0 0 0.1 0
18-09-2020 23.9 (17:40) 18.1 (08:20) 21 15 (02:10) 6.94 (02:10) 0.8 0 0.8 0 0
17-09-2020 28 (15:10) 21.2 (00:00) 24.6 15.28 (18:50) 7.22 (18:40) 0 0 0 0 0
16-09-2020 29.1 (16:30) 16 (00:00) 22.6 10.28 (14:50) 5 (14:50) 0 0 0 0 0
15-09-2020 28.8 (18:00) 17.5 (00:00) 23.1 10 (00:10) 3.89 (00:40) 0 0 0 0 0
14-09-2020 27.7 (16:40) 21.2 (00:00) 24.5 14.17 (04:00) 5 (13:00) 0 0 0 0 0
13-09-2020 28.8 (17:50) 21.5 (00:00) 25.1 16.11 (21:10) 6.67 (20:30) 0 0 0 0 0
12-09-2020 31 (15:50) 21.4 (00:00) 26.2 12.22 (20:10) 5.83 (18:00) 0 0 0 0 0
11-09-2020 30.2 (15:40) 19 (00:00) 24.6 10.56 (14:50) 5 (12:20) 0 0 0 0 0
10-09-2020 32.2 (17:20) 17.8 (00:00) 25 6.39 (16:20) 2.78 (16:20) 0 0 0 0 0
09-09-2020 28.7 (17:30) 18.1 (00:00) 23.4 13.61 (01:40) 6.94 (00:10) 0 0 0 0 0
08-09-2020 26.3 (14:30) 19.7 (00:00) 23 13.89 (07:50) 7.22 (07:10) 0 0 0 0 0
07-09-2020 34.2 (17:30) 17.7 (07:20) 26 6.39 (17:10) 2.78 (16:10) 0 0 0 0 0
06-09-2020 28.8 (17:00) 19.9 (00:00) 24.3 12.5 (01:20) 6.67 (01:20) 0 0 0 0 0
05-09-2020 28.8 (17:00) 20 (00:00) 24.4 13.33 (02:10) 6.11 (02:10) 0 0 0 0 0
04-09-2020 28.7 (14:30) 19 (00:00) 23.9 12.22 (00:40) 5.56 (00:50) 0 0 0 0 0
03-09-2020 28 (15:20) 19.7 (00:00) 23.9 14.44 (16:50) 6.67 (19:00) 0 0 0 0 0
02-09-2020 29.2 (15:20) 13.6 (00:00) 21.4 10.56 (23:50) 5.83 (19:40) 0 0 0 0 0
01-09-2020 28.2 (18:30) 17.6 (00:00) 22.9 7.78 (00:10) 3.06 (13:00) 0 0 0 0 0
31-08-2020 27.2 (15:50) 19.2 (00:00) 23.2 13.06 (12:30) 6.39 (14:00) 0 0 0 0 0
30-08-2020 28.2 (17:40) 13.7 (00:00) 21 8.33 (18:50) 3.89 (18:50) 0 0 0 0 0
29-08-2020 27 (19:40) 15.9 (00:00) 21.4 10.28 (14:40) 5 (15:40) 0 0 0 0 0
28-08-2020 33.1 (17:10) 19.7 (00:00) 26.4 9.72 (20:50) 4.72 (17:40) 0 0 0 0 0
27-08-2020 38.5 (17:30) 19.7 (00:00) 29.1 8.33 (14:40) 2.5 (16:00) 0 0 0 0 0
26-08-2020 37.8 (19:30) 18.7 (00:00) 28.3 6.11 (15:40) 2.5 (19:40) 0 0 0 0 0
25-08-2020 33.9 (17:40) 21.7 (00:00) 27.8 9.44 (15:50) 4.72 (15:20) 0 0 0 0 0
24-08-2020 31.4 (17:00) 21.9 (00:00) 26.6 10.83 (11:00) 5.56 (11:50) 0 0 0 0 0

Gráficas

Temp. máximas Temp. mínimas Temp. medias Precipitaciones Rachas de viento máximas Velocidades máximas media en intervalos de 10 minutos

Datos horarios

Fecha y hora oficial Temperatura (ºC) Velocidad del viento (km/h) Dirección del viento Racha (km/h) Dirección de racha Precipitación (mm) Presión (hPa) Tendencia (hPa) Humedad (%)
2020-09-22 23:00:00 22.4 0 Calma 12 Noroeste 0 968.2 1.8 46
2020-09-22 22:00:00 23.5 6 Oeste 17 Sudoeste 0 967.9 -- 41
2020-09-22 21:00:00 24.6 4 Oeste 15 Noroeste 0 967.1 -- 37
2020-09-22 20:00:00 26.4 7 Oeste 24 Noroeste 0 966.4 -- 32
2020-09-22 19:00:00 27.8 10 Noroeste 23 Noroeste 0 966.2 -- 31
2020-09-22 18:00:00 28.9 11 Noroeste 25 Noroeste 0 966.1 -- 31
2020-09-22 17:00:00 29.1 8 Noroeste 22 Noroeste 0 966.5 -- 31
2020-09-22 16:00:00 28 4 Sudoeste 26 Noroeste 0 967.1 -- 33
2020-09-22 15:00:00 27.6 0 Calma 9 Sudeste 0 967.8 -- 37
2020-09-22 14:00:00 26.4 3 Noroeste 17 Nordeste 0 968.6 -- 39
2020-09-22 13:00:00 25.2 3 Noroeste 12 Oeste 0 968.8 -- 43
2020-09-22 12:00:00 23.2 4 Noroeste 9 Noroeste 0 969.3 -- 49
2020-09-22 11:00:00 20.4 2 Este 7 Nordeste 0 969 -- 56
2020-09-22 10:00:00 16.6 0 Calma -- -- 0 968.6 -- 61
2020-09-22 09:00:00 14 0 Calma 0 Calma 0 968.6 -- 67
2020-09-22 08:00:00 13.8 0 Calma -- -- 0 968.3 -- 67
2020-09-22 07:00:00 15 0 Calma -- -- 0 968 -- 63
2020-09-22 06:00:00 15.7 0 Calma 6 Oeste 0 968.1 -- 60
2020-09-22 05:00:00 16 0 Calma -- -- 0 968.2 -- 57
2020-09-22 04:00:00 17.3 0 Calma 7 Nordeste 0 968.7 -- 55
2020-09-22 03:00:00 17.5 0 Calma 12 Nordeste 0 969.1 -- 53
2020-09-22 02:00:00 18.8 0 Calma 2 Sudeste 0 969.5 -- 50
2020-09-22 01:00:00 20 0 Calma 6 Nordeste 0 969.6 -- 46
2020-09-22 00:00:00 21.3 0 Calma 7 Noroeste 0 969.7 -- 44
2020-09-21 23:00:00 21.8 0 Calma 5 Noroeste 0 969.5 -- 41
2020-09-21 22:00:00 23.6 0 Calma 8 Noroeste 0 969.2 -- 38
2020-09-21 21:00:00 24.4 0 Calma 10 Noroeste 0 968.8 -- 37
2020-09-21 20:00:00 26.1 4 Noroeste 16 Noroeste 0 968.7 -- 36
2020-09-21 19:00:00 27.3 6 Noroeste 19 Noroeste 0 968.4 -- 34
2020-09-21 18:00:00 27.7 6 Noroeste 18 Noroeste 0 968.5 -- 31
2020-09-21 17:00:00 27.3 4 Nordeste 18 Nordeste 0 968.8 -- 35
2020-09-21 16:00:00 26.5 2 Norte 20 Nordeste 0 969.1 -- 35
2020-09-21 15:00:00 27.2 5 Noroeste 20 Nordeste 0 969.6 -- 37
2020-09-21 14:00:00 26 3 Norte 18 Nordeste 0 970.2 -- 39
2020-09-21 13:00:00 24.4 3 Nordeste 13 Nordeste 0 970.5 -- 49
2020-09-21 12:00:00 22.6 4 Nordeste 12 Nordeste 0 970.9 -- 56
2020-09-21 11:00:00 20.9 4 Nordeste 9 Nordeste 0 970.7 -- 65
2020-09-21 10:00:00 17.8 2 Nordeste 6 Nordeste 0 970.6 -- 73
2020-09-21 09:00:00 15.8 0 Calma 13 Noroeste 0 970.4 -- 75
2020-09-21 08:00:00 15.9 3 Noroeste 6 Noroeste 0 970.1 -- 76
2020-09-21 07:00:00 15.4 0 Calma 4 Noroeste 0 969.6 -- 74
2020-09-21 06:00:00 15.6 0 Calma 4 Sudeste 0 969.6 -- 74
2020-09-21 05:00:00 16.6 0 Calma 6 Nordeste 0 969.6 -- 72
2020-09-21 04:00:00 17.2 4 Nordeste 6 Nordeste 0 969.9 -- 72
2020-09-21 03:00:00 17.9 0 Calma 6 Nordeste 0 970.4 -- 67
2020-09-21 02:00:00 17.9 0 Calma 5 Norte 0 970.7 -- 64
2020-09-21 01:00:00 19 0 Calma 4 Nordeste 0 970.9 -- 60
2020-09-21 00:00:00 19.1 2 Nordeste 6 Nordeste 0 970.9 -- 56
2020-09-20 23:00:00 20.1 0 Calma 3 Noroeste 0 971.1 -- 54
2020-09-20 22:00:00 20.9 0 Calma 5 Noroeste 0 970.8 -- 51
2020-09-20 21:00:00 21.6 0 Calma 8 Noroeste 0 970.3 -- 50
2020-09-20 20:00:00 22.7 4 Noroeste 21 Noroeste 0 970.2 -- 46
2020-09-20 19:00:00 23.7 9 Noroeste 26 Noroeste 0 969.9 -- 44
2020-09-20 18:00:00 24.9 8 Noroeste 27 Noroeste 0 969.6 -- 40
2020-09-20 17:00:00 25.6 8 Noroeste 27 Noroeste 0 969.7 -- 39
2020-09-20 16:00:00 26 4 Norte 22 Noroeste 0 970.2 -- 38
2020-09-20 15:00:00 24.6 10 Noroeste 23 Noroeste 0 970.6 -- 40
2020-09-20 14:00:00 23.7 3 Norte 14 Noroeste 0 971.3 -- 46
2020-09-20 13:00:00 22.6 3 Noroeste 14 Nordeste 0 971.6 -- 50
2020-09-20 12:00:00 20.3 3 Nordeste 11 Nordeste 0 971.9 -- 55
2020-09-20 11:00:00 16.3 3 Nordeste 8 Este 0 972.1 -- 78
2020-09-20 10:00:00 13.2 0 Calma 4 Nordeste 0.1 971.9 -- 94
2020-09-20 09:00:00 12.5 0 Calma 3 Nordeste 0 971.8 -- 95
2020-09-20 08:00:00 12.7 0 Calma -- -- 0 971.5 -- 95
2020-09-20 07:00:00 13.1 0 Calma 7 Noroeste 0 971.5 -- 94
2020-09-20 06:00:00 13.7 0 Calma 4 Nordeste 0 971.2 -- 96
2020-09-20 05:00:00 14.1 0 Calma 8 Nordeste 0 971.3 -- 93
2020-09-20 04:00:00 15.5 3 Nordeste 8 Nordeste 0 971.8 -- 94
2020-09-20 03:00:00 15.3 0 Calma 7 Noroeste 0 972.2 -- 93
2020-09-20 02:00:00 16.4 3 Noroeste 16 Noroeste 0 972.1 -- 90
2020-09-20 01:00:00 16.7 3 Noroeste 14 Noroeste 0 972 -- 86
2020-09-20 00:00:00 17.7 0 Calma 5 Noroeste 0 972.2 -- 85
2020-09-19 23:00:00 18.4 2 Oeste 11 Oeste 0 971.8 -- 84
2020-09-19 22:00:00 18.9 0 Calma 8 Norte 0 971.3 -- 88
2020-09-19 21:00:00 19.8 2 Nordeste 12 Noroeste 0 970.5 -- 79
2020-09-19 20:00:00 21.1 6 Noroeste 15 Sudoeste 0 970.2 -- 74
2020-09-19 19:00:00 22.2 5 Oeste 19 Sudoeste 0 970.1 -- 70
2020-09-19 18:00:00 20.5 0 Calma 16 Noroeste 0 970.2 -- 87
2020-09-19 17:00:00 19.6 10 Oeste 20 Noroeste 0 970.4 -- 88
2020-09-19 16:00:00 21 8 Noroeste 27 Oeste 0 970.4 -- 75
2020-09-19 15:00:00 20.8 12 Noroeste 30 Noroeste 0.1 970.6 -- 79
2020-09-19 14:00:00 22.4 3 Sudoeste 15 Sudoeste 0 970.5 -- 60
2020-09-19 13:00:00 23.2 5 Sudoeste 21 Sudoeste 0 970.6 -- 57
2020-09-19 12:00:00 22 0 Calma 9 Noroeste 0 970.9 -- 61
2020-09-19 11:00:00 19.5 0 Calma 8 Nordeste 0 970.9 -- 70
2020-09-19 10:00:00 17.4 0 Calma 7 Noroeste 0 970.6 -- 79
2020-09-19 09:00:00 14.6 0 Calma 7 Oeste 0 970.2 -- 86
2020-09-19 08:00:00 14.8 0 Calma 4 Nordeste 0 969.7 -- 87
2020-09-19 07:00:00 14.7 0 Calma 4 Noroeste 0 969.5 -- 86
2020-09-19 06:00:00 16 0 Calma 3 Sudeste 0 969.3 -- 80
2020-09-19 05:00:00 16.7 0 Calma 8 Noroeste 0 969.2 -- 78
2020-09-19 04:00:00 17.8 0 Calma 5 Sudoeste 0 969.3 -- 75
2020-09-19 03:00:00 18.6 0 Calma 10 Sudoeste 0 969.4 -- 73
2020-09-19 02:00:00 19.2 2 Sudoeste 11 Sudoeste 0 969.3 -- 77
2020-09-19 01:00:00 19.2 3 Sur 17 Sudeste 0 969.4 -- 78
2020-09-19 00:00:00 19.7 5 Sudeste 17 Sudoeste 0 969.6 -- 78
2020-09-18 23:00:00 20 6 Sudeste 19 Sudeste 0 969.4 -- 73
2020-09-18 22:00:00 20.3 6 Sur 24 Sudoeste 0 968.6 -- 73
2020-09-18 21:00:00 20.6 7 Sur 28 Sudeste 0 967.5 -- 73
2020-09-18 20:00:00 21.4 15 Sudeste 41 Sudeste 0 967.1 -- 69
2020-09-18 19:00:00 22.2 17 Sudeste 38 Sudoeste 0 966.3 -- 69
2020-09-18 18:00:00 23.3 15 Sur 36 Sudeste 0 966.1 -- 65
2020-09-18 17:00:00 23.2 12 Sur 37 Sudoeste 0 966.1 -- 68
2020-09-18 16:00:00 21.9 13 Sur 40 Sudeste 0 966.3 -- 80
2020-09-18 15:00:00 22.6 19 Sur 50 Sudeste 0 966.4 -- 72
2020-09-18 14:00:00 22.7 16 Sur 43 Sudeste 0 966 -- 70
2020-09-18 13:00:00 22.7 13 Sudeste 36 Sudoeste 0 965.5 -- 73
2020-09-18 12:00:00 20.9 11 Sur 37 Sudeste 0 966.3 -- 82
2020-09-18 11:00:00 20.3 20 Sudeste 45 Sudeste 0.1 965.8 -- 84
2020-09-18 10:00:00 18.7 17 Sudeste 36 Sudeste 0.5 965.3 -- 90
2020-09-18 09:00:00 19 14 Sudeste 37 Sudeste 0.1 965.2 -- 87
2020-09-18 08:00:00 18.8 6 Sudeste 17 Sudeste 0.1 964.8 -- 91
2020-09-18 07:00:00 19 8 Sudeste 18 Sudeste 0 964.9 -- 87
2020-09-18 06:00:00 19 10 Sudeste 26 Sudeste 0 965 -- 86
2020-09-18 05:00:00 18.8 14 Sudeste 40 Sudeste 0 965.6 -- 86
2020-09-18 04:00:00 19.4 21 Sudeste 43 Sudeste 0 965.9 -- 79
2020-09-18 03:00:00 20.3 22 Sudeste 54 Sudeste 0 966.1 -- 75
2020-09-18 02:00:00 21.1 23 Sudeste 52 Sudeste 0 966.5 -- 70
2020-09-18 01:00:00 21.7 17 Sur 45 Sudeste 0 966.5 -- 68
2020-09-18 00:00:00 21.8 16 Sur 44 Sudeste 0 966.6 -- 68
2020-09-17 23:00:00 21.8 12 Sudeste 33 Sudeste 0 966.7 -- 68
2020-09-17 22:00:00 21.8 17 Sudeste 37 Sudeste 0 966.5 -- 72
2020-09-17 21:00:00 22.1 19 Sudeste 49 Sudeste 0 965.7 -- 70
2020-09-17 20:00:00 23.2 23 Sudeste 53 Sudeste 0 965.6 -- 69
2020-09-17 19:00:00 25.1 17 Sur 55 Sudeste 0 965.1 -- 60
2020-09-17 18:00:00 25.9 20 Sudeste 42 Sudeste 0 964.6 -- 57
2020-09-17 17:00:00 26.3 15 Sur 40 Sudeste 0 965.6 -- 56
2020-09-17 16:00:00 26.6 8 Sur 35 Sudeste 0 965.4 -- 57
2020-09-17 15:00:00 27.8 15 Sudeste 39 Sudeste 0 965.9 -- 55
2020-09-17 14:00:00 25.9 11 Sudeste 28 Sudeste 0 966.6 -- 62
2020-09-17 13:00:00 24.6 14 Sudeste 33 Sudeste 0 967.2 -- 66
2020-09-17 12:00:00 24.2 15 Sudeste 38 Sudeste 0 967.5 -- 69
2020-09-17 11:00:00 23 22 Sudeste 43 Sudeste 0 967.1 -- 74
2020-09-17 10:00:00 22.4 23 Sudeste 42 Sudeste 0 966.7 -- 76
2020-09-17 09:00:00 22.2 13 Sudeste 33 Sudeste 0 966.6 -- 77
2020-09-17 08:00:00 21.9 15 Sudeste 33 Sudeste 0 966.4 -- 79
2020-09-17 07:00:00 21.3 17 Sudeste 38 Sudeste 0 966.5 -- 85
2020-09-17 06:00:00 21.3 18 Sudeste 33 Sudeste 0 966.3 -- 84
2020-09-17 05:00:00 21.5 13 Sudeste 32 Sudeste 0 966.8 -- 80
2020-09-17 04:00:00 21.7 18 Sudeste 39 Sudeste 0 967.4 -- 78
2020-09-17 03:00:00 21.7 8 Sur 29 Sudoeste 0 968.1 -- 79
2020-09-17 02:00:00 22 3 Sur 24 Sudeste 0 968 -- 78
2020-09-17 01:00:00 22.4 9 Sur 23 Sudeste 0 968.4 -- 76
2020-09-17 00:00:00 22.3 4 Oeste 30 Sudeste 0 968.3 -- 77
2020-09-16 23:00:00 22.1 14 Sudeste 30 Sudeste 0 969.3 -- 76
2020-09-16 22:00:00 23.2 6 Sur 22 Sudeste 0 969.2 -- 66
2020-09-16 21:00:00 23.7 8 Sur 30 Sudeste 0 968.5 -- 63
2020-09-16 20:00:00 25 11 Sudeste 35 Sudeste 0 967.9 -- 49
2020-09-16 19:00:00 26.3 11 Sur 30 Sudeste 0 967.8 -- 44
2020-09-16 18:00:00 26.5 13 Sur 32 Sudoeste 0 967.8 -- 42
2020-09-16 17:00:00 27.8 13 Sur 27 Sudeste 0 967.8 -- 43
2020-09-16 16:00:00 27.9 12 Sudeste 28 Sudeste 0 968.3 -- 43
2020-09-16 15:00:00 28.2 16 Sudeste 37 Sudeste 0 969.1 -- 44
2020-09-16 14:00:00 27 9 Sur 31 Sudeste 0 970 -- 51
2020-09-16 13:00:00 25.8 13 Sudeste 32 Sudeste 0 970.2 -- 52
2020-09-16 12:00:00 24.3 14 Sudeste 30 Sudeste 0 970.8 -- 59
2020-09-16 11:00:00 23.8 12 Sudeste 26 Sudeste 0 970.7 -- 62
2020-09-16 10:00:00 19.8 0 Calma 9 Sudeste 0 970.9 -- 72
2020-09-16 09:00:00 16.5 0 Calma 6 Oeste 0 970.9 -- 76
2020-09-16 08:00:00 16.1 0 Calma 6 Noroeste 0 970.7 -- 79
2020-09-16 07:00:00 17 3 Nordeste 9 Nordeste 0 970.9 -- 78
2020-09-16 06:00:00 17 0 Calma 5 Sudeste 0 971.4 -- 75
2020-09-16 05:00:00 18 0 Calma 6 Noroeste 0 971.7 -- 70
2020-09-16 04:00:00 19.9 0 Calma 6 Noroeste 0 971.9 -- 67
2020-09-16 03:00:00 20.3 0 Calma 5 Noroeste 0 972.2 -- 63
2020-09-16 02:00:00 21 5 Noroeste 11 Noroeste 0 972.4 -- 62
2020-09-16 01:00:00 21.7 0 Calma 6 Noroeste 0 972.6 -- 59
2020-09-16 00:00:00 22.3 0 Calma 4 Sudoeste 0 972.5 -- 57
2020-09-15 23:00:00 22.8 0 Calma 7 Sudeste 0 972 -- 52
2020-09-15 22:00:00 23.9 0 Calma 10 Sudeste 0 971.7 -- 49
2020-09-15 21:00:00 24.9 2 Sudoeste 13 Sudeste 0 971.3 -- 49
2020-09-15 20:00:00 26.5 5 Sur 21 Sudeste 0 970.9 -- 48
2020-09-15 19:00:00 27.8 14 Sudeste 27 Sudeste 0 970.7 -- 44
2020-09-15 18:00:00 28.8 9 Sur 26 Sudeste 0 970.8 -- 43
2020-09-15 17:00:00 28.3 12 Sudeste 26 Sudeste 0 971.6 -- 46
2020-09-15 16:00:00 27.9 6 Sur 26 Sudeste 0 972.2 -- 51
2020-09-15 15:00:00 27 6 Sur 28 Sudeste 0 972.8 -- 53
2020-09-15 14:00:00 26.8 6 Sudeste 24 Sudeste 0 973.2 -- 57
2020-09-15 13:00:00 25.2 7 Sudeste 27 Este 0 973.9 -- 62
2020-09-15 12:00:00 24.3 11 Sudeste 23 Sudeste 0 974.3 -- 67
2020-09-15 11:00:00 22.5 2 Este 9 Nordeste 0 974.2 -- 74
2020-09-15 10:00:00 20.5 3 Este 8 Nordeste 0 973.8 -- 79
2020-09-15 09:00:00 18.5 6 Nordeste 12 Nordeste 0 973.6 -- 83
2020-09-15 08:00:00 18.3 0 Calma 13 Sudeste 0 973 -- 86
2020-09-15 07:00:00 18.9 9 Nordeste 21 Sudeste 0 972.7 -- 86
2020-09-15 06:00:00 20.2 12 Sudeste 22 Este 0 972.8 -- 87
2020-09-15 05:00:00 20.4 6 Sudeste 19 Sudeste 0 973.1 -- 85
2020-09-15 04:00:00 20.6 3 Este 18 Sudeste 0 973.4 -- 80
2020-09-15 03:00:00 20.6 0 Calma 10 Sudeste 0 973.5 -- 74
2020-09-15 02:00:00 21.2 0 Calma 25 Sudeste 0 973.7 -- 73
2020-09-15 01:00:00 22.2 11 Sudeste 36 Sudeste 0 973.3 -- 67
2020-09-15 00:00:00 22.7 14 Sur 41 Sudeste 0 972.9 -- 62
2020-09-14 23:00:00 23 12 Sudeste 35 Sudoeste 0 972.8 -- 61
2020-09-14 22:00:00 23.3 7 Sudeste 23 Sudeste 0 972.6 -- 61
2020-09-14 21:00:00 23.5 4 Sudoeste 19 Sur 0 971.9 -- 61
2020-09-14 20:00:00 25.2 9 Sur 27 Sudeste 0 971.4 -- 54
2020-09-14 19:00:00 26.3 8 Sudeste 24 Sudeste 0 971.5 -- 51
2020-09-14 18:00:00 26.7 9 Sur 33 Sudeste 0 971.3 -- 49
2020-09-14 17:00:00 27.3 9 Sur 26 Sudeste 0 971.6 -- 49
2020-09-14 16:00:00 25.7 11 Sur 38 Sudeste 0 972.2 -- 53
2020-09-14 15:00:00 25.5 9 Sur 35 Sudeste 0 972.7 -- 53
2020-09-14 14:00:00 26.3 9 Sur 45 Sudeste 0 973.2 -- 52
2020-09-14 13:00:00 26 18 Sur 44 Sudeste 0 973.2 -- 52
2020-09-14 12:00:00 25.3 9 Sur 32 Sudeste 0 973.9 -- 56
2020-09-14 11:00:00 25.4 12 Sudeste 26 Sudeste 0 973.7 -- 58
2020-09-14 10:00:00 23.3 10 Sudeste 25 Este 0 973.3 -- 66
2020-09-14 09:00:00 22.4 6 Sudeste 20 Este 0 973 -- 69
2020-09-14 08:00:00 22 9 Sudeste 22 Este 0 972 -- 72
2020-09-14 07:00:00 21.7 10 Sudeste 26 Sudeste 0 971.8 -- 74
2020-09-14 06:00:00 21.7 0 Calma 18 Sudeste 0 971.9 -- 74
2020-09-14 05:00:00 21.7 6 Este 30 Sudeste 0 971.9 -- 73
2020-09-14 04:00:00 22.9 13 Sudeste 51 Sudeste 0 971.9 -- 67
2020-09-14 03:00:00 23.2 11 Sudeste 38 Sudeste 0 972.4 -- 65
2020-09-14 02:00:00 22 7 Este 35 Sudeste 0 973 -- 68
2020-09-14 01:00:00 23.5 12 Sudeste 34 Sudeste 0 972.8 -- 62
2020-09-14 00:00:00 23.6 3 Sudoeste 39 Sudeste 0 973.6 -- 60
2020-09-13 23:00:00 24.5 10 Sur 44 Sudeste 0 973.1 -- 56
2020-09-13 22:00:00 24.9 19 Sur 58 Sudeste 0 972.2 -- 54
2020-09-13 21:00:00 25.2 20 Sur 54 Sudeste 0 970.6 -- 51
2020-09-13 20:00:00 26.1 16 Sur 43 Sudeste 0 970.9 -- 50
2020-09-13 19:00:00 27.6 11 Sur 43 Sudeste 0 970.9 -- 47
2020-09-13 18:00:00 28.1 13 Sur 35 Sudoeste 0 971 -- 46
2020-09-13 17:00:00 28.2 10 Sur 39 Sudoeste 0 971.3 -- 47
2020-09-13 16:00:00 27.7 12 Sur 46 Sudeste 0 971.6 -- 46
2020-09-13 15:00:00 28.3 13 Sur 54 Sudeste 0 971.9 -- 46
2020-09-13 14:00:00 27.6 16 Sudeste 39 Sudeste 0 972.1 -- 46
2020-09-13 13:00:00 27.8 10 Sur 42 Sudeste 0 972.7 -- 48
2020-09-13 12:00:00 26.7 19 Sudeste 39 Sudeste 0 972.8 -- 50
2020-09-13 11:00:00 25.4 13 Sudeste 35 Este 0 972.4 -- 54
2020-09-13 10:00:00 24.2 12 Sudeste 28 Sudeste 0 971.7 -- 56
2020-09-13 09:00:00 23.1 14 Este 27 Sudeste 0 971 -- 58
2020-09-13 08:00:00 23.4 6 Sudeste 28 Este 0 970.8 -- 56
2020-09-13 07:00:00 21.9 13 Sudeste 27 Sudeste 0 970.2 -- 63
2020-09-13 06:00:00 22.1 8 Sudeste 22 Sudeste 0 970 -- 63
2020-09-13 05:00:00 22.2 9 Sudeste 24 Este 0 970.3 -- 66
2020-09-13 04:00:00 22 10 Sudeste 35 Sudeste 0 970.5 -- 64
2020-09-13 03:00:00 23.1 11 Sudeste 35 Sudeste 0 970.7 -- 61
2020-09-13 02:00:00 23 6 Sudeste 37 Sudeste 0 970.8 -- 61
2020-09-13 01:00:00 23.3 8 Sur 32 Sudeste 0 970.9 -- 57
2020-09-13 00:00:00 24.1 7 Sur 30 Sudoeste 0 970.5 -- 52
2020-09-12 23:00:00 24.5 5 Sur 39 Sudeste 0 970.1 -- 49
2020-09-12 22:00:00 24.8 13 Sudeste 33 Sudeste 0 969.3 -- 48
2020-09-12 21:00:00 25.7 13 Sudeste 44 Sudeste 0 968.3 -- 45
2020-09-12 20:00:00 27.2 13 Sudeste 40 Sudeste 0 967.9 -- 40
2020-09-12 19:00:00 28.4 9 Sur 43 Sudeste 0 967.7 -- 38
2020-09-12 18:00:00 30 21 Sudeste 43 Sudeste 0 967.5 -- 37
2020-09-12 17:00:00 30.7 14 Sur 37 Sudeste 0 967.7 -- 37
2020-09-12 16:00:00 30.4 14 Sudeste 37 Sudeste 0 968 -- 37
2020-09-12 15:00:00 30.5 14 Sudeste 36 Sudoeste 0 968.3 -- 37
2020-09-12 14:00:00 30.6 8 Sur 34 Sudeste 0 968.7 -- 38
2020-09-12 13:00:00 29.1 16 Sur 42 Sudeste 0 968.7 -- 39
2020-09-12 12:00:00 28.4 17 Sudeste 40 Sudeste 0 968.7 -- 40
2020-09-12 11:00:00 26.9 14 Sudeste 31 Sudeste 0 968.4 -- 41
2020-09-12 10:00:00 25.4 10 Sudeste 27 Sudeste 0 967.8 -- 44
2020-09-12 09:00:00 23.9 12 Sudeste 24 Sudeste 0 967.6 -- 45
2020-09-12 08:00:00 22.6 11 Sudeste 21 Sudeste 0 967 -- 47
2020-09-12 07:00:00 22.6 8 Sudeste 22 Sudeste 0 967 -- 48
2020-09-12 06:00:00 22.1 4 Sudeste 15 Sudeste 0 967 -- 50
2020-09-12 05:00:00 21.4 6 Sudeste 13 Sudeste 0 967.1 -- 50
2020-09-12 04:00:00 22.9 4 Sudeste 15 Sudeste 0 966.7 -- 46
2020-09-12 03:00:00 23 0 Calma 21 Sudeste 0 967 -- 46
2020-09-12 02:00:00 24 6 Este 20 Sudeste 0 967.2 -- 44
2020-09-12 01:00:00 23.4 0 Calma 9 Sudeste 0 967.1 -- 45
2020-09-12 00:00:00 24.3 2 Sudeste 13 Sudeste 0 967.1 -- 43
2020-09-11 23:00:00 24.9 4 Sudeste 17 Sudoeste 0 966.7 -- 43
2020-09-11 22:00:00 25.2 0 Calma 12 Sudeste 0 966.2 -- 40
2020-09-11 21:00:00 26.5 4 Sur 22 Sudeste 0 965.5 -- 38
2020-09-11 20:00:00 27.5 6 Sur 27 Sudeste 0 965.3 -- 37
2020-09-11 19:00:00 28 6 Sur 33 Sudoeste 0 965.5 -- 38
2020-09-11 18:00:00 29.3 7 Sur 26 Sudoeste 0 965.4 -- 35
2020-09-11 17:00:00 29.9 7 Sur 25 Sudoeste 0 965.7 -- 36
2020-09-11 16:00:00 29.2 7 Sur 34 Sudeste 0 966.1 -- 38
2020-09-11 15:00:00 29.2 10 Sur 38 Sudeste 0 966.9 -- 40
2020-09-11 14:00:00 28.6 9 Sudeste 31 Sudeste 0 967.2 -- 41
2020-09-11 13:00:00 27.8 15 Sudeste 36 Sudeste 0 967.7 -- 43
2020-09-11 12:00:00 26.4 17 Sudeste 33 Sudeste 0 967.7 -- 46
2020-09-11 11:00:00 25 17 Sudeste 30 Sudeste 0 967.8 -- 49
2020-09-11 10:00:00 23.3 0 Calma 24 Sudeste 0 967.5 -- 55
2020-09-11 09:00:00 20.4 0 Calma 12 Sudoeste 0 967.5 -- 62
2020-09-11 08:00:00 19.1 0 Calma 4 Sudoeste 0 967 -- 64
2020-09-11 07:00:00 19.5 0 Calma 8 Sudoeste 0 966.8 -- 61
2020-09-11 06:00:00 19.8 0 Calma 6 Sudoeste 0 966.8 -- 60
2020-09-11 05:00:00 20 3 Oeste 7 Sudoeste 0 967.2 -- 57
2020-09-11 04:00:00 20.5 3 Noroeste 9 Sudoeste 0 967.3 -- 56
2020-09-11 03:00:00 20.1 0 Calma 6 Sudoeste 0 967.5 -- 57
2020-09-11 02:00:00 20.8 3 Noroeste 14 Noroeste 0 968.2 -- 56
2020-09-11 01:00:00 22.4 0 Calma 10 Sudeste 0 968.2 -- 51
2020-09-11 00:00:00 23.2 2 Sur 18 Sudeste 0 968.3 -- 48
2020-09-10 23:00:00 23.6 0 Calma 15 Sudeste 0 968.1 -- 49
2020-09-10 22:00:00 24.6 3 Sur 14 Sudoeste 0 967.6 -- 46
2020-09-10 21:00:00 26 0 Calma 11 Sudeste 0 967.1 -- 44
2020-09-10 20:00:00 29.3 5 Sudeste 18 Sudeste 0 966.7 -- 37
2020-09-10 19:00:00 31.1 4 Este 17 Nordeste 0 966.7 -- 33
2020-09-10 18:00:00 31.3 4 Noroeste 18 Noroeste 0 967.2 -- 32
2020-09-10 17:00:00 31.8 7 Noroeste 23 Noroeste 0 967.7 -- 33
2020-09-10 16:00:00 31.4 3 Noroeste 21 Nordeste 0 968.5 -- 33
2020-09-10 15:00:00 30.4 5 Este 19 Sudeste 0 969.1 -- 34
2020-09-10 14:00:00 29.2 4 Oeste 10 Nordeste 0 970 -- 39
2020-09-10 13:00:00 28 3 Sudoeste 11 Sudeste 0 970.8 -- 43
2020-09-10 12:00:00 26.1 0 Calma 6 Nordeste 0 971.4 -- 46
2020-09-10 11:00:00 23 2 Este 8 Este 0 971.6 -- 52
2020-09-10 10:00:00 20.7 0 Calma 5 Sudeste 0 971.6 -- 56
2020-09-10 09:00:00 19.3 0 Calma 7 Nordeste 0 971.5 -- 59
2020-09-10 08:00:00 18 2 Noroeste 9 Noroeste 0 971.1 -- 61
2020-09-10 07:00:00 19.1 3 Noroeste 8 Noroeste 0 970.7 -- 59
2020-09-10 06:00:00 18.9 2 Oeste 8 Noroeste 0 970.9 -- 59
2020-09-10 05:00:00 19.4 3 Oeste 8 Noroeste 0 971.2 -- 54
2020-09-10 04:00:00 20 2 Sudoeste 14 Sudoeste 0 971.5 -- 50
2020-09-10 03:00:00 20.4 8 Sudeste 21 Sudeste 0 971.9 -- 49
2020-09-10 02:00:00 20 0 Calma 12 Sudeste 0 972.1 -- 53
2020-09-10 01:00:00 20.4 2 Noroeste 9 Sudeste 0 972.2 -- 52
2020-09-10 00:00:00 21.3 2 Sur 17 Sudeste 0 972 -- 51
2020-09-09 23:00:00 21.6 0 Calma 8 Sudoeste 0 971.7 -- 50
2020-09-09 22:00:00 22.9 0 Calma 17 Sudeste 0 971.3 -- 47
2020-09-09 21:00:00 24.5 4 Sur 16 Sudeste 0 970.5 -- 44
2020-09-09 20:00:00 26.3 7 Sudeste 21 Sudeste 0 970 -- 41
2020-09-09 19:00:00 27.8 9 Sudeste 19 Sudeste 0 970 -- 41
2020-09-09 18:00:00 28.4 7 Sudeste 24 Sudeste 0 970.2 -- 40
2020-09-09 17:00:00 27.9 4 Sur 27 Sudeste 0 970.5 -- 41
2020-09-09 16:00:00 28 8 Sudeste 24 Sudeste 0 971 -- 40
2020-09-09 15:00:00 27 10 Sur 28 Sudeste 0 971.6 -- 43
2020-09-09 14:00:00 26.6 10 Sudeste 30 Sudeste 0 972 -- 46
2020-09-09 13:00:00 26.1 14 Sudeste 31 Sudeste 0 972.6 -- 51
2020-09-09 12:00:00 24.2 11 Sudeste 33 Sudeste 0 973 -- 59
2020-09-09 11:00:00 22.8 9 Sur 28 Sudeste 0 973.1 -- 64
2020-09-09 10:00:00 21 6 Sudeste 18 Sudeste 0 972.7 -- 74
2020-09-09 09:00:00 18.9 6 Sudeste 16 Este 0 972.5 -- 83
2020-09-09 08:00:00 18.4 0 Calma 9 Sudeste 0 971.8 -- 82
2020-09-09 07:00:00 18.8 3 Sudeste 27 Sudeste 0 971.7 -- 82
2020-09-09 06:00:00 19 9 Sudeste 33 Sudeste 0 971.7 -- 80
2020-09-09 05:00:00 19.1 12 Sur 35 Sudeste 0 971.8 -- 81
2020-09-09 04:00:00 19.2 12 Sur 39 Sudeste 0 972 -- 80
2020-09-09 03:00:00 19.6 15 Sur 46 Sudeste 0 972.1 -- 80
2020-09-09 02:00:00 20 24 Sudeste 49 Sudeste 0 972.1 -- 78
2020-09-09 01:00:00 20 22 Sudeste 48 Sudeste 0 972.2 -- 78
2020-09-09 00:00:00 19.8 25 Sudeste 47 Sudoeste 0 972.4 -- 78
2020-09-08 23:00:00 20.4 22 Sudeste 46 Sudeste 0 972 -- 70
2020-09-08 22:00:00 21.1 21 Sudeste 45 Sudeste 0 971.6 -- 63
2020-09-08 21:00:00 21.5 15 Sur 48 Sudeste 0 971.1 -- 59
2020-09-08 20:00:00 22.4 22 Sudeste 48 Sudeste 0 970.8 -- 56
2020-09-08 19:00:00 23.5 25 Sudeste 44 Sudoeste 0 970.6 -- 56
2020-09-08 18:00:00 25.1 18 Sudeste 41 Sudeste 0 970.4 -- 56
2020-09-08 17:00:00 25.2 20 Sudeste 40 Sudeste 0 970.8 -- 56
2020-09-08 16:00:00 24.9 18 Sur 44 Sudeste 0 971.1 -- 57
2020-09-08 15:00:00 25.4 15 Sur 48 Sudeste 0 971.2 -- 57
2020-09-08 14:00:00 25.1 17 Sur 44 Sudeste 0 971.2 -- 56
2020-09-08 13:00:00 24.4 23 Sudeste 46 Sudeste 0 971.7 -- 59
2020-09-08 12:00:00 23.8 22 Sudeste 46 Sudeste 0 971.9 -- 63
2020-09-08 11:00:00 22.9 22 Sudeste 49 Sudeste 0 971.5 -- 67
2020-09-08 10:00:00 21.9 20 Sudeste 50 Sudeste 0 971 -- 70
2020-09-08 09:00:00 21.2 17 Sur 45 Sudeste 0 970.9 -- 73
2020-09-08 08:00:00 20.7 24 Sudeste 50 Sudeste 0 970.2 -- 78
2020-09-08 07:00:00 20.9 20 Sudeste 47 Sudeste 0 969.6 -- 81
2020-09-08 06:00:00 20.9 24 Sudeste 46 Sudeste 0 969.6 -- 83
2020-09-08 05:00:00 20.8 21 Sudeste 48 Sudeste 0 969.6 -- 85
2020-09-08 04:00:00 20.9 18 Sur 43 Sudeste 0 969.9 -- 81
2020-09-08 03:00:00 21.3 19 Sur 48 Sudeste 0 970.2 -- 79
2020-09-08 02:00:00 21.8 15 Sudeste 49 Sudoeste 0 970.5 -- 78
2020-09-08 01:00:00 21.8 5 Sur 24 Sudeste 0 969.7 -- 76
2020-09-08 00:00:00 22.9 9 Sur 22 Sudeste 0 969.2 -- 71
2020-09-07 23:00:00 24.9 0 Calma 12 Sudoeste 0 968.6 -- 60
2020-09-07 22:00:00 26.5 4 Sudoeste 12 Sudoeste 0 967.8 -- 51
2020-09-07 21:00:00 28.3 0 Calma 9 Noroeste 0 966.9 -- 42
2020-09-07 20:00:00 32.8 5 Noroeste 16 Sudoeste 0 966.4 -- 31
2020-09-07 19:00:00 33.7 5 Oeste 21 Noroeste 0 966.3 -- 30
2020-09-07 18:00:00 33 6 Noroeste 23 Noroeste 0 966.5 -- 31
2020-09-07 17:00:00 33.5 8 Noroeste 22 Noroeste 0 966.5 -- 31
2020-09-07 16:00:00 33.6 6 Noroeste 22 Noroeste 0 966.9 -- 34
2020-09-07 15:00:00 32.2 4 Norte 18 Noroeste 0 967.4 -- 39
2020-09-07 14:00:00 31.5 2 Norte 12 Noroeste 0 967.9 -- 39
2020-09-07 13:00:00 29.6 3 Noroeste 13 Noroeste 0 968.5 -- 45
2020-09-07 12:00:00 27.2 3 Sudoeste 10 Sudoeste 0 968.5 -- 52
2020-09-07 11:00:00 24.1 0 Calma 7 Este 0 968.5 -- 64
2020-09-07 10:00:00 21 0 Calma 3 Sudeste 0 968.2 -- 77
2020-09-07 09:00:00 19.5 0 Calma 2 Sudoeste 0 968.2 -- 81
2020-09-07 08:00:00 18.1 0 Calma 3 Sudoeste 0 967.9 -- 86
2020-09-07 07:00:00 18.8 0 Calma 4 Sudoeste 0 967.9 -- 84
2020-09-07 06:00:00 19.6 0 Calma 7 Sudoeste 0 967.7 -- 81
2020-09-07 05:00:00 19.8 0 Calma 8 Noroeste 0 968 -- 80
2020-09-07 04:00:00 20.4 2 Noroeste 6 Noroeste 0 968.1 -- 80
2020-09-07 03:00:00 20.3 0 Calma 5 Sudoeste 0 968.5 -- 80
2020-09-07 02:00:00 20.5 0 Calma 3 Noroeste 0 968.9 -- 79
2020-09-07 01:00:00 20.9 0 Calma 6 Sudoeste 0 968.8 -- 76
2020-09-07 00:00:00 21 0 Calma 25 Sudeste 0 968.3 -- 74
2020-09-06 23:00:00 21.3 13 Sudeste 29 Sudeste 0 967.8 -- 75
2020-09-06 22:00:00 22.4 9 Sudeste 23 Sudeste 0 967.8 -- 70
2020-09-06 21:00:00 23.7 9 Sudeste 27 Sudeste 0 966.8 -- 64
2020-09-06 20:00:00 25.7 12 Sudeste 30 Sudeste 0 966.5 -- 56
2020-09-06 19:00:00 27.6 14 Sudeste 34 Sudeste 0 966.3 -- 51
2020-09-06 18:00:00 28.4 13 Sudeste 32 Sudeste 0 966.6 -- 50
2020-09-06 17:00:00 28.3 13 Sudeste 32 Sudeste 0 967 -- 50
2020-09-06 16:00:00 27.9 16 Sudeste 36 Sudeste 0 967.6 -- 52
2020-09-06 15:00:00 27.3 18 Sudeste 39 Sudeste 0 968.2 -- 55
2020-09-06 14:00:00 27 18 Sudeste 41 Sudeste 0 968.4 -- 56
2020-09-06 13:00:00 26 19 Sudeste 40 Sudeste 0 968.8 -- 58
2020-09-06 12:00:00 24.2 21 Sudeste 41 Sudeste 0 968.7 -- 64
2020-09-06 11:00:00 23 18 Sur 42 Sudeste 0 968.6 -- 70
2020-09-06 10:00:00 22 13 Sudeste 33 Sudeste 0 968.5 -- 72
2020-09-06 09:00:00 21.2 11 Sudeste 29 Sudeste 0 968.4 -- 75
2020-09-06 08:00:00 20.1 3 Sudeste 22 Sudeste 0 968.1 -- 83
2020-09-06 07:00:00 20.3 10 Sudeste 28 Sudeste 0 968 -- 82
2020-09-06 06:00:00 20.6 7 Sudeste 31 Sudeste 0 968 -- 80
2020-09-06 05:00:00 20.3 19 Sudeste 39 Sudeste 0 967.8 -- 82
2020-09-06 04:00:00 20.1 10 Sur 35 Sudeste 0 968.3 -- 82
2020-09-06 03:00:00 20.2 14 Sur 41 Sudeste 0 968.9 -- 81
2020-09-06 02:00:00 20 20 Sur 45 Sudeste 0 969.4 -- 84
2020-09-06 01:00:00 20.5 21 Sudeste 43 Sudeste 0 969.7 -- 81
2020-09-06 00:00:00 20.4 17 Sudeste 36 Sudeste 0 969.3 -- 79
2020-09-05 23:00:00 20.9 15 Sudeste 35 Sudeste 0 969.2 -- 75
2020-09-05 22:00:00 21.4 15 Sudeste 36 Sudeste 0 968.8 -- 73
2020-09-05 21:00:00 23.5 16 Sudeste 37 Sudeste 0 967.8 -- 59
2020-09-05 20:00:00 26.1 13 Sudeste 31 Sudeste 0 967.7 -- 43
2020-09-05 19:00:00 27.6 15 Sudeste 36 Sudeste 0 967.7 -- 41
2020-09-05 18:00:00 28.5 15 Sudeste 37 Sudeste 0 968.1 -- 43
2020-09-05 17:00:00 28.2 18 Sudeste 39 Sudeste 0 968.7 -- 44
2020-09-05 16:00:00 28.5 18 Sudeste 36 Sudeste 0 969.6 -- 48
2020-09-05 15:00:00 28.1 16 Sudeste 41 Sudeste 0 970.4 -- 51
2020-09-05 14:00:00 27 16 Sudeste 36 Sudeste 0 970.6 -- 55
2020-09-05 13:00:00 26 15 Sudeste 38 Sudeste 0 971.3 -- 56
2020-09-05 12:00:00 24.4 14 Sudeste 41 Sudeste 0 971.8 -- 62
2020-09-05 11:00:00 22.8 18 Sudeste 36 Sudeste 0 971.9 -- 69
2020-09-05 10:00:00 21.8 9 Sudeste 26 Sudeste 0 971.9 -- 72
2020-09-05 09:00:00 20.9 10 Sudeste 32 Sudeste 0 971.6 -- 79
2020-09-05 08:00:00 20.4 12 Sudeste 43 Sudeste 0 971.4 -- 82
2020-09-05 07:00:00 20.5 10 Sudeste 31 Sudeste 0 971.1 -- 79
2020-09-05 06:00:00 20.5 8 Sudeste 32 Sudeste 0 971.4 -- 80
2020-09-05 05:00:00 20.4 4 Sur 30 Sudeste 0 971.7 -- 81
2020-09-05 04:00:00 20.4 8 Sudeste 28 Sudeste 0 972.1 -- 81
2020-09-05 03:00:00 20.3 9 Sudeste 48 Sudeste 0 972.9 -- 81
2020-09-05 02:00:00 20.5 19 Sudeste 42 Sudeste 0 973.3 -- 80
2020-09-05 01:00:00 20.8 16 Sudeste 39 Sudeste 0 973.4 -- 75
2020-09-05 00:00:00 21.4 19 Sudeste 37 Sudeste 0 973.4 -- 72
2020-09-04 23:00:00 22.1 14 Sudeste 32 Sudeste 0 973.2 -- 70
2020-09-04 22:00:00 22.8 8 Sur 40 Sudeste 0 972.6 -- 62
2020-09-04 21:00:00 22.9 9 Sur 37 Sudeste 0 972 -- 62
2020-09-04 20:00:00 24.3 14 Sur 36 Sudeste 0 971.9 -- 54
2020-09-04 19:00:00 25.8 12 Sur 43 Sudeste 0 971.9 -- 47
2020-09-04 18:00:00 26.5 18 Sur 42 Sudeste 0 971.9 -- 44
2020-09-04 17:00:00 27.3 10 Sur 39 Sudeste 0 972.2 -- 43
2020-09-04 16:00:00 27.6 16 Sur 39 Sudoeste 0 972.6 -- 40
2020-09-04 15:00:00 28.2 15 Sudeste 37 Sudeste 0 973.3 -- 38
2020-09-04 14:00:00 27.2 18 Sudeste 40 Sudeste 0 973.7 -- 38
2020-09-04 13:00:00 27.1 17 Sudeste 39 Sudeste 0 974.1 -- 40
2020-09-04 12:00:00 25.8 14 Sudeste 34 Sudeste 0 974.2 -- 47
2020-09-04 11:00:00 23.5 11 Sudeste 22 Nordeste 0 974.2 -- 57
2020-09-04 10:00:00 22.4 12 Sudeste 23 Sudeste 0 974 -- 62
2020-09-04 09:00:00 21 6 Sudeste 27 Sudeste 0 973.5 -- 69
2020-09-04 08:00:00 20 9 Sudeste 32 Sudeste 0 973.1 -- 74
2020-09-04 07:00:00 19.5 4 Este 15 Sudeste 0 972.8 -- 81
2020-09-04 06:00:00 19.8 9 Sudeste 23 Sudeste 0 972.6 -- 80
2020-09-04 05:00:00 19.6 2 Sudeste 15 Sudeste 0 972.6 -- 84
2020-09-04 04:00:00 19.8 3 Sudeste 22 Oeste 0 972.9 -- 81
2020-09-04 03:00:00 20 2 Sudeste 28 Sudeste 0 973.3 -- 81
2020-09-04 02:00:00 20.3 13 Sur 43 Sudoeste 0 973.4 -- 80
2020-09-04 01:00:00 22.1 14 Sudeste 44 Sudeste 0 973.2 -- 66
2020-09-04 00:00:00 23 14 Sudeste 39 Sudeste 0 972.9 -- 61
2020-09-03 23:00:00 22.5 19 Sudeste 41 Sudeste 0 972.6 -- 63
2020-09-03 22:00:00 22.7 15 Sudeste 40 Sudeste 0 972.4 -- 63
2020-09-03 21:00:00 23.4 17 Sur 42 Sudeste 0 971.6 -- 60
2020-09-03 20:00:00 24.8 15 Sur 43 Sudeste 0 971.1 -- 55
2020-09-03 19:00:00 25.2 24 Sudeste 47 Sudeste 0 971 -- 52
2020-09-03 18:00:00 26.4 22 Sudeste 48 Sudeste 0 970.8 -- 49
2020-09-03 17:00:00 27.1 23 Sudeste 52 Sudeste 0 970.8 -- 46
2020-09-03 16:00:00 26.9 18 Sur 48 Sudeste 0 971.2 -- 47
2020-09-03 15:00:00 27.5 12 Sur 36 Sudeste 0 972.1 -- 47
2020-09-03 14:00:00 26.7 13 Sur 38 Sudeste 0 972.4 -- 50
2020-09-03 13:00:00 26.3 18 Sudeste 39 Sudeste 0 972.4 -- 53
2020-09-03 12:00:00 24.9 10 Sudeste 35 Sudeste 0 972.7 -- 64
2020-09-03 11:00:00 23.2 12 Sudeste 31 Sudeste 0 972.4 -- 70
2020-09-03 10:00:00 21.7 9 Sur 30 Sudeste 0 972.1 -- 75
2020-09-03 09:00:00 20.9 10 Sudeste 31 Sudeste 0 971.5 -- 79
2020-09-03 08:00:00 19.9 10 Sudeste 41 Sudeste 0 971 -- 81
2020-09-03 07:00:00 19.9 10 Sudeste 24 Sudeste 0 970.4 -- 80
2020-09-03 06:00:00 19.9 8 Sudeste 23 Sudoeste 0 970.3 -- 82
2020-09-03 05:00:00 20.2 3 Sudeste 23 Sudoeste 0 970.3 -- 78
2020-09-03 04:00:00 20.6 8 Sudeste 24 Sudeste 0 970.3 -- 75
2020-09-03 03:00:00 21.1 2 Sur 16 Sudoeste 0 970.2 -- 72
2020-09-03 02:00:00 21.5 6 Sur 30 Sudeste 0 969.9 -- 66
2020-09-03 01:00:00 21.8 13 Sur 34 Sudeste 0 970 -- 61
2020-09-03 00:00:00 22.3 14 Sur 38 Sudeste 0 969.8 -- 56
2020-09-02 23:00:00 22.5 15 Sudeste 34 Sudeste 0 969.3 -- 54
2020-09-02 22:00:00 22.7 14 Sudeste 33 Sudeste 0 969.1 -- 50
2020-09-02 21:00:00 23.5 15 Sur 33 Sudoeste 0 968.3 -- 49
2020-09-02 20:00:00 24.6 18 Sudeste 36 Sudeste 0 968 -- 45
2020-09-02 19:00:00 25.4 20 Sudeste 36 Sudeste 0 967.6 -- 44
2020-09-02 18:00:00 26.4 18 Sudeste 37 Sudeste 0 967.3 -- 44
2020-09-02 17:00:00 26.9 15 Sur 34 Sudeste 0 967 -- 43
2020-09-02 16:00:00 28.5 14 Sudeste 31 Sudeste 0 967 -- 40
2020-09-02 15:00:00 28.2 10 Sudeste 25 Sudoeste 0 967 -- 39
2020-09-02 14:00:00 27.8 12 Sudeste 27 Sudeste 0 967.2 -- 40
2020-09-02 13:00:00 26.9 13 Sudeste 33 Sudeste 0 967.5 -- 43
2020-09-02 12:00:00 25.1 15 Sudeste 30 Sudeste 0 967.5 -- 46
2020-09-02 11:00:00 23.2 13 Sudeste 28 Sudeste 0 967.2 -- 52
2020-09-02 10:00:00 19.4 0 Calma 5 Sudeste 0 966.7 -- 67
2020-09-02 09:00:00 15.4 0 Calma 4 Noroeste 0 966 -- 75
2020-09-02 08:00:00 13.7 0 Calma 5 Nordeste 0 965.9 -- 76
2020-09-02 07:00:00 15 3 Nordeste 7 Nordeste 0 965.5 -- 74
2020-09-02 06:00:00 15.1 0 Calma 4 Noroeste 0 965.3 -- 74
2020-09-02 05:00:00 16.7 0 Calma 7 Noroeste 0 965.2 -- 71
2020-09-02 04:00:00 17.4 0 Calma 5 Noroeste 0 965.3 -- 66
2020-09-02 03:00:00 18.3 0 Calma 5 Noroeste 0 965.5 -- 64
2020-09-02 02:00:00 18.8 0 Calma 6 Noroeste 0 965.5 -- 61
2020-09-02 01:00:00 19.7 0 Calma 3 Sudoeste 0 965.4 -- 57
2020-09-02 00:00:00 20.7 0 Calma 5 Sudoeste 0 965.3 -- 56
2020-09-01 23:00:00 21.6 0 Calma 12 Oeste 0 965.3 -- 51
2020-09-01 22:00:00 23 0 Calma 9 Sudoeste 0 964.7 -- 48
2020-09-01 21:00:00 24.1 0 Calma 15 Sudeste 0 964.2 -- 44
2020-09-01 20:00:00 26.4 8 Sudeste 20 Sudeste 0 963.8 -- 41
2020-09-01 19:00:00 27.7 5 Sudeste 25 Sudeste 0 963.9 -- 39
2020-09-01 18:00:00 27.9 5 Sudeste 17 Sudeste 0 964 -- 39
2020-09-01 17:00:00 27 2 Sudeste 14 Sudeste 0 964.7 -- 39
2020-09-01 16:00:00 26.2 7 Sudeste 21 Sudeste 0 965 -- 40
2020-09-01 15:00:00 25.7 0 Calma 11 Sudoeste 0 965.9 -- 41
2020-09-01 14:00:00 24.6 3 Sudoeste 14 Sudeste 0 966.6 -- 44
2020-09-01 13:00:00 24.8 11 Sudeste 21 Sudeste 0 966.5 -- 45
2020-09-01 12:00:00 23.8 0 Calma 11 Sudoeste 0 966.8 -- 52
2020-09-01 11:00:00 22.3 0 Calma 5 Sudeste 0 967.2 -- 63
2020-09-01 10:00:00 20.1 3 Noroeste 8 Oeste 0 967.1 -- 70
2020-09-01 09:00:00 19.2 0 Calma 4 Noroeste 0 967.1 -- 73
2020-09-01 08:00:00 17.6 0 Calma 3 Sudeste 0 966.7 -- 74
2020-09-01 07:00:00 18.1 0 Calma 9 Norte 0 966.6 -- 73
2020-09-01 06:00:00 18.5 3 Noroeste 10 Noroeste 0 966.5 -- 68
2020-09-01 05:00:00 18.6 0 Calma 7 Noroeste 0 966.5 -- 67
2020-09-01 04:00:00 18.5 2 Oeste 10 Sudoeste 0 966.6 -- 72
2020-09-01 03:00:00 19 0 Calma 10 Sudoeste 0 967.5 -- 70
2020-09-01 02:00:00 19.7 0 Calma 13 Sudoeste 0 968.6 0.5 68
2020-09-01 01:00:00 20.8 3 Sudoeste 28 Sudeste 0 968.8 -- 66
2020-09-01 00:00:00 21.4 8 Sur 31 Sudeste 0 968.5 -- 66
2020-08-31 23:00:00 21.5 9 Sudeste 27 Sudeste 0 968.1 -- 63
2020-08-31 22:00:00 22.1 3 Sur 21 Sudeste 0 967.8 -- 54
2020-08-31 21:00:00 22.9 3 Sur 28 Sudeste 0 967.3 -- 50
2020-08-31 20:00:00 23.8 12 Sudeste 31 Sudeste 0 967.1 -- 50
2020-08-31 19:00:00 24.6 13 Sur 39 Sudeste 0 967.5 -- 46
2020-08-31 18:00:00 25.8 16 Sur 45 Sudeste 0 967.5 -- 43
2020-08-31 17:00:00 26.2 14 Sur 37 Sudeste 0 967.9 -- 43
2020-08-31 16:00:00 26.7 15 Sudeste 40 Sudeste 0 968.5 -- 40
2020-08-31 15:00:00 27.1 15 Sudeste 41 Sudeste 0 969 -- 44
2020-08-31 14:00:00 25.5 23 Sudeste 41 Sudoeste 0 969.3 -- 45
2020-08-31 13:00:00 25.2 18 Sudeste 47 Sudeste 0 969.7 -- 49
2020-08-31 12:00:00 24.2 18 Sur 41 Sudeste 0 969.8 -- 55
2020-08-31 11:00:00 22.5 15 Sur 37 Sudeste 0 969.9 -- 68
2020-08-31 10:00:00 21.3 12 Sur 37 Sudeste 0 969.4 -- 73
2020-08-31 09:00:00 20.5 5 Sudeste 27 Sudeste 0 969.1 -- 79
2020-08-31 08:00:00 19.4 8 Sur 27 Sudeste 0 968.7 -- 82
2020-08-31 07:00:00 19.7 8 Sudeste 28 Sudeste 0 968.3 -- 81
2020-08-31 06:00:00 19.5 13 Sudeste 33 Sudeste 0 968 -- 83
2020-08-31 05:00:00 19.4 10 Sur 31 Sudeste 0 967.8 -- 86
2020-08-31 04:00:00 19.5 14 Sur 29 Sudeste 0 968.1 -- 86
2020-08-31 03:00:00 19.6 13 Sudeste 33 Sudeste 0 967.9 -- 85
2020-08-31 02:00:00 19.8 16 Sudeste 31 Sudeste 0 967.9 -- 84
2020-08-31 01:00:00 20 8 Sur 28 Sudeste 0 967.8 -- 77
2020-08-31 00:00:00 20.5 5 Sur 19 Sudoeste 0 967.4 -- 69
2020-08-30 23:00:00 21.3 3 Sur 14 Sudoeste 0 966.7 -- 56
2020-08-30 22:00:00 22.4 0 Calma 14 Sudeste 0 966.1 -- 49
2020-08-30 21:00:00 23.7 5 Sur 26 Sudeste 0 965 -- 45
2020-08-30 20:00:00 25.3 14 Sudeste 28 Sudeste 0 964.2 -- 43
2020-08-30 19:00:00 26.9 14 Sudeste 30 Sudeste 0 963.6 -- 38
2020-08-30 18:00:00 27.7 7 Sur 21 Sudeste 0 963.5 -- 38
2020-08-30 17:00:00 27.5 8 Sudeste 28 Sudeste 0 963.6 -- 40
2020-08-30 16:00:00 27.9 5 Sur 21 Sudoeste 0 964 -- 41
2020-08-30 15:00:00 27 4 Sur 22 Sudeste 0 964.1 -- 41
2020-08-30 14:00:00 26.2 5 Sur 24 Sudeste 0 964.4 -- 45
2020-08-30 13:00:00 24.7 3 Este 12 Este 0 964.7 -- 46
2020-08-30 12:00:00 21.8 3 Este 9 Nordeste 0 965 -- 44
2020-08-30 11:00:00 19 0 Calma 9 Nordeste 0 964.6 -- 47
2020-08-30 10:00:00 16.7 0 Calma 4 Noroeste 0 964.3 -- 49
2020-08-30 09:00:00 14.7 0 Calma 4 Nordeste 0 964 -- 50
2020-08-30 08:00:00 14.1 0 Calma 3 Noroeste 0 963.4 -- 49
2020-08-30 07:00:00 14.7 0 Calma 0 Calma 0 963 -- 47
2020-08-30 06:00:00 14.9 0 Calma 4 Nordeste 0 962.9 -- 46
2020-08-30 05:00:00 16.7 0 Calma 5 Noroeste 0 962.6 -- 44
2020-08-30 04:00:00 16.7 0 Calma 16 Noroeste 0 962.7 -- 43
2020-08-30 03:00:00 18.3 0 Calma 6 Noroeste 0 962.8 -- 41
2020-08-30 02:00:00 19.4 5 Noroeste 14 Noroeste 0 962.7 -- 40
2020-08-30 01:00:00 19.6 6 Noroeste 15 Noroeste 0 962.7 -- 38
2020-08-30 00:00:00 21.2 4 Noroeste 13 Noroeste 0 962 -- 38
2020-08-29 23:00:00 21.9 5 Noroeste 13 Noroeste 0 961.5 -- 37
2020-08-29 22:00:00 23.6 4 Noroeste 23 Noroeste 0 960.6 -- 35
2020-08-29 21:00:00 25.1 12 Noroeste 28 Noroeste 0 959.6 -- 35
2020-08-29 20:00:00 26.4 10 Noroeste 31 Noroeste 0 959.3 -- 34
2020-08-29 19:00:00 26.6 15 Noroeste 32 Noroeste 0 959.4 -- 34
2020-08-29 18:00:00 26.1 16 Noroeste 36 Noroeste 0 959.7 -- 34
2020-08-29 17:00:00 26 12 Noroeste 34 Noroeste 0 959.7 -- 37
2020-08-29 16:00:00 25 17 Noroeste 35 Noroeste 0 960.1 -- 35
2020-08-29 15:00:00 24.3 16 Noroeste 37 Noroeste 0 960.2 -- 37
2020-08-29 14:00:00 23.3 15 Noroeste 30 Noroeste 0 960.3 -- 45
2020-08-29 13:00:00 22.7 10 Noroeste 28 Noroeste 0 960.4 -- 47
2020-08-29 12:00:00 20.9 12 Noroeste 25 Noroeste 0 960.8 -- 51
2020-08-29 11:00:00 19.8 9 Noroeste 20 Noroeste 0 960.7 -- 55
2020-08-29 10:00:00 18 9 Noroeste 21 Noroeste 0 960.8 -- 57
2020-08-29 09:00:00 17.6 0 Calma 6 Noroeste 0 960.7 -- 56
2020-08-29 08:00:00 16.2 4 Noroeste 13 Noroeste 0 960.3 -- 57
2020-08-29 07:00:00 16.6 0 Calma 9 Noroeste 0 960 -- 55
2020-08-29 06:00:00 17.6 5 Noroeste 13 Noroeste 0 959.7 -- 52
2020-08-29 05:00:00 18.8 0 Calma 9 Noroeste 0 959.7 -- 51
2020-08-29 04:00:00 19.6 3 Noroeste 15 Noroeste 0 960 -- 51
2020-08-29 03:00:00 21.2 6 Noroeste 16 Sudoeste 0 960.1 -- 50
2020-08-29 02:00:00 22.2 3 Oeste 12 Sudoeste 0 960.6 -- 56
2020-08-29 01:00:00 23.5 4 Sudoeste 19 Sudoeste 0 960.7 -- 58
2020-08-29 00:00:00 24.8 7 Oeste 26 Sudoeste 0 960.9 -- 58
2020-08-28 23:00:00 25.8 10 Oeste 28 Sudoeste 0 960.9 -- 57
2020-08-28 22:00:00 26.9 10 Oeste 30 Noroeste 0 960.6 -- 55
2020-08-28 21:00:00 28.2 10 Oeste 35 Sudoeste 0 960.3 -- 51
2020-08-28 20:00:00 30.4 13 Oeste 34 Sudoeste 0 960.3 -- 44
2020-08-28 19:00:00 32.3 13 Oeste 31 Noroeste 0 960.3 -- 40
2020-08-28 18:00:00 31.8 13 Noroeste 32 Noroeste 0 960.8 -- 39
2020-08-28 17:00:00 32.8 13 Noroeste 31 Noroeste 0 961.2 -- 39
2020-08-28 16:00:00 32.5 14 Noroeste 34 Noroeste 0 961.9 -- 43
2020-08-28 15:00:00 31.6 11 Noroeste 31 Noroeste 0 962.4 -- 44
2020-08-28 14:00:00 31.9 11 Oeste 28 Noroeste 0 962.9 -- 37
2020-08-28 13:00:00 30.4 9 Noroeste 20 Noroeste 0 963.6 -- 42
2020-08-28 12:00:00 28.9 6 Noroeste 17 Noroeste 0 964.1 -- 48
2020-08-28 11:00:00 26.3 5 Nordeste 12 Nordeste 0 964.1 -- 51
2020-08-28 10:00:00 23.6 0 Calma 4 Este 0 963.9 -- 51
2020-08-28 09:00:00 21.9 0 Calma -- -- 0 963.7 -- 53
2020-08-28 08:00:00 19.8 0 Calma 4 Nordeste 0 963.8 -- 56
2020-08-28 07:00:00 21.1 2 Nordeste -- -- -- 963.9 -- 53
2020-08-28 06:00:00 21.3 0 Calma 2 Nordeste 0 964.2 -- 51
2020-08-28 05:00:00 22.5 0 Calma 5 Nordeste 0 964.7 -- 49
2020-08-28 04:00:00 24.4 0 Calma 5 Nordeste 0 964.8 -- 46
2020-08-28 03:00:00 25.6 0 Calma 9 Noroeste 0 965.3 -- 45
2020-08-28 02:00:00 26.8 2 Oeste 6 Sudoeste 0 965.9 -- 43
2020-08-28 01:00:00 26.8 0 Calma 9 Oeste 0 966.2 -- 43
2020-08-28 00:00:00 27.9 2 Oeste 9 Sudoeste 0 966.4 -- 40
2020-08-27 23:00:00 28.4 0 Calma 8 Sudoeste 0 966.9 -- 40
2020-08-27 22:00:00 30.3 0 Calma 14 Sudoeste 0 966.6 -- 36
2020-08-27 21:00:00 32.8 3 Sudoeste 13 Sudoeste 0 966.3 -- 33
2020-08-27 20:00:00 35.4 4 Sudoeste 20 Sur 0 965.9 -- 29
2020-08-27 19:00:00 36.8 6 Sudoeste 23 Sudoeste 0 965.9 -- 28
2020-08-27 18:00:00 38 6 Sudoeste 23 Sudoeste 0 966.5 -- 27
2020-08-27 17:00:00 37.8 4 Sudoeste 21 Sudoeste 0 966.9 -- 28
2020-08-27 16:00:00 37.7 9 Sudeste 27 Sudeste 0 967.6 -- 29
2020-08-27 15:00:00 37.2 3 Sudoeste 30 Este 0 968.4 -- 29
2020-08-27 14:00:00 36.9 4 Sur 21 Sudeste 0 968.9 -- 32
2020-08-27 13:00:00 35.3 0 Calma 13 Sudeste 0 969.6 -- 34
2020-08-27 12:00:00 32.1 0 Calma 7 Noroeste 0 970.1 -- 40
2020-08-27 11:00:00 27.8 0 Calma 5 Este 0 970.2 -- 51
2020-08-27 10:00:00 23.5 0 Calma 6 Nordeste 0 970.3 -- 62
2020-08-27 09:00:00 21.1 0 Calma 4 Nordeste 0 970.4 -- 64
2020-08-27 08:00:00 19.9 0 Calma 0 Calma 0 970.2 -- 69
2020-08-27 07:00:00 21.2 0 Calma 3 Noroeste 0 970 -- 68
2020-08-27 06:00:00 21.6 0 Calma 3 Noroeste 0 969.9 -- 66
2020-08-27 05:00:00 22.9 0 Calma 4 Sudoeste 0 970.4 -- 67
2020-08-27 04:00:00 23.3 0 Calma 6 Sudoeste 0 970.7 -- 65
2020-08-27 03:00:00 24.3 0 Calma 4 Sudoeste 0 970.9 -- 60
2020-08-27 02:00:00 25 0 Calma 3 Nordeste 0 971.1 -- 56
2020-08-27 01:00:00 26.4 0 Calma 8 Sudoeste 0 971.1 -- 52
2020-08-27 00:00:00 27.4 2 Oeste 8 Sudoeste 0 971.1 -- 49
2020-08-26 23:00:00 28.5 0 Calma 7 Sudoeste 0 971 -- 45
2020-08-26 22:00:00 30.5 0 Calma 9 Sudeste 0 970.3 -- 40
2020-08-26 21:00:00 33.1 0 Calma 20 Oeste 0 969.5 -- 32
2020-08-26 20:00:00 36.3 9 Noroeste 21 Noroeste 0 969 -- 28
2020-08-26 19:00:00 36.6 5 Sudeste 21 Sudeste 0 968.9 -- 29
2020-08-26 18:00:00 37.4 8 Sudeste 21 Sudeste 0 968.9 -- 28
2020-08-26 17:00:00 37.4 3 Sur 18 Sudeste 0 969.1 -- 27
2020-08-26 16:00:00 36.6 2 Sudoeste 22 Sudeste 0 969.5 -- 28
2020-08-26 15:00:00 36.3 4 Oeste 18 Sudeste 0 970 -- 28
2020-08-26 14:00:00 34.8 3 Sudeste 18 Sudeste 0 970.5 -- 31
2020-08-26 13:00:00 33.4 0 Calma 12 Sudeste 0 971 -- 35
2020-08-26 12:00:00 31 4 Sudeste 22 Este 0 971.2 -- 40
2020-08-26 11:00:00 27.4 0 Calma 5 Sudeste 0 970.7 -- 54
2020-08-26 10:00:00 23.5 0 Calma 4 Nordeste 0 970.4 -- 64
2020-08-26 09:00:00 21.2 0 Calma 4 Sudoeste 0 970.4 -- 74
2020-08-26 08:00:00 18.8 0 Calma 5 Nordeste 0 970 -- 76
2020-08-26 07:00:00 18.7 0 Calma 6 Noroeste 0 969.7 -- 74
2020-08-26 06:00:00 20.4 0 Calma 2 Noroeste 0 969.4 -- 69
2020-08-26 05:00:00 21.2 0 Calma 3 Noroeste 0 969.7 -- 68
2020-08-26 04:00:00 21.5 0 Calma 3 Nordeste 0 969.9 -- 68
2020-08-26 03:00:00 23.1 0 Calma 11 Noroeste 0 970.1 -- 63
2020-08-26 02:00:00 23.8 4 Oeste 10 Oeste 0 969.8 -- 63
2020-08-26 01:00:00 24.6 4 Noroeste 14 Sudeste 0 969.7 -- 57
2020-08-26 00:00:00 25.8 0 Calma 8 Oeste 0 969.4 -- 52
2020-08-25 23:00:00 26.9 0 Calma 10 Sudeste 0 969.1 -- 46
2020-08-25 22:00:00 28.3 3 Sudoeste 20 Sudeste 0 968 -- 43
2020-08-25 21:00:00 29.8 6 Sudeste 21 Sudeste 0 967.1 -- 40
2020-08-25 20:00:00 31.8 10 Sudeste 22 Sudeste 0 966.6 -- 40
2020-08-25 19:00:00 33.1 10 Sudeste 25 Sudeste 0 966.6 -- 39
2020-08-25 18:00:00 33.4 13 Sudeste 27 Sudeste 0 966.7 -- 39
2020-08-25 17:00:00 33.6 13 Sudeste 32 Sudeste 0 966.9 -- 40
2020-08-25 16:00:00 33.7 14 Sudeste 34 Sudeste 0 967.3 -- 41
2020-08-25 15:00:00 32.4 17 Sudeste 31 Sudeste 0 967.7 -- 43
2020-08-25 14:00:00 32 8 Sur 25 Sudeste 0 968.2 -- 43
2020-08-25 13:00:00 30.4 12 Sudeste 27 Este 0 968.3 -- 53
2020-08-25 12:00:00 28.5 13 Sudeste 32 Sudeste 0 968.6 -- 59
2020-08-25 11:00:00 26.2 13 Sudeste 27 Sudeste 0 968.4 -- 68
2020-08-25 10:00:00 25.6 13 Sudeste 24 Sudeste 0 968.1 -- 70
2020-08-25 09:00:00 23.3 7 Sur 20 Sudeste 0 968 -- 84
2020-08-25 08:00:00 22.3 0 Calma 12 Sudoeste 0 967.9 -- 85
2020-08-25 07:00:00 22 0 Calma 14 Sudeste 0 967.5 -- 85
2020-08-25 06:00:00 22.3 3 Sudeste 13 Sudeste 0 967.7 -- 84
2020-08-25 05:00:00 22.7 5 Sudeste 19 Sudeste 0 967.8 -- 82
2020-08-25 04:00:00 22.9 6 Sur 27 Sudeste 0 968.2 -- 81
2020-08-25 03:00:00 23.4 7 Sur 23 Sudeste 0 968.2 -- 79
2020-08-25 02:00:00 23.5 8 Sur 28 Sudeste 0 968.3 -- 79
2020-08-25 01:00:00 23.4 13 Sudeste 31 Sudeste 0 968.2 -- 84
2020-08-25 00:00:00 23.9 5 Sur 23 Sudoeste 0 968.2 -- 79
2020-08-24 23:00:00 24.2 9 Sudeste 22 Sudeste 0 967.6 -- 75
2020-08-24 22:00:00 25.9 8 Sudeste 29 Sudeste 0 967 -- 63
2020-08-24 21:00:00 27.3 13 Sudeste 28 Sudeste 0 966.3 -- 57
2020-08-24 20:00:00 28.7 16 Sudeste 32 Sudeste 0 965.9 -- 55
2020-08-24 19:00:00 30 15 Sudeste 35 Sudeste 0 966 -- 52
2020-08-24 18:00:00 30.8 15 Sudeste 36 Sudeste 0 966.5 -- 51
2020-08-24 17:00:00 30.9 13 Sudeste 33 Sudeste 0 966.8 -- 51
2020-08-24 16:00:00 30.5 16 Sudeste 36 Sudeste 0 967.3 -- 52
2020-08-24 15:00:00 30.1 15 Sudeste 39 Sudoeste 0 967.8 -- 52
2020-08-24 14:00:00 29.3 16 Sudeste 37 Sudeste 0 968.3 -- 55
2020-08-24 13:00:00 28.6 17 Sudeste 39 Sudeste 0 968.8 -- 60
2020-08-24 12:00:00 26.9 19 Sudeste 36 Sudeste 0 969.2 -- 64
2020-08-24 11:00:00 25.2 18 Sudeste 39 Sudeste 0 969.1 -- 70
2020-08-24 10:00:00 24.9 16 Sudeste 32 Sudeste 0 968.8 -- 74
2020-08-24 09:00:00 23.8 7 Sur 26 Sudeste 0 968.7 -- 79
2020-08-24 08:00:00 22.6 3 Sur 16 Sudeste 0 968.2 -- 83
2020-08-24 07:00:00 22.1 0 Calma 6 Sudeste 0 968.1 -- 86
2020-08-24 06:00:00 22.3 0 Calma 9 Sudeste 0 967.7 -- 86
2020-08-24 05:00:00 22.3 0 Calma 6 Nordeste 0 968.3 -- 83
2020-08-24 04:00:00 23.2 2 Sur 28 Sudeste 0 968.5 -- 81
2020-08-24 03:00:00 23.1 14 Sudeste 27 Sudeste 0 968.4 -- 82
2020-08-24 02:00:00 23.7 6 Sudeste 20 Sudeste 0 968.6 -- 78
2020-08-24 01:00:00 24.3 3 Sur 14 Sudoeste 0 968.7 -- 72
2020-08-24 00:00:00 24.9 3 Sur 13 Sudeste 0 968.9 -- 68